Surface/Precipitation History
11/22/2014 17:03  to  11/23/2014 17:03
Change End Date:
Date/Time
(MST)
Sf
Temp Chem Water Layer Surface Precipitation
Sf Sub Frz Factor Pct Depth IcePct Cond Salin Type Intens Accum Rate
11/23/2014 16:55 Dry 30.6F 28F - - - - - 5 mhos 525 None None - -
11/23/2014 16:54 Dry 30.6F 28F - - - - - 5 mhos 525 None None - -
11/23/2014 16:44 Dry 31.3F 28F - - - - - 5 mhos 539 None None - -
11/23/2014 16:40 Dry 31.5F 28F - - - - - 5 mhos 545 None None - -
11/23/2014 16:34 Dry 31.6F 28F - - - - - 5 mhos 556 None None - -
11/23/2014 16:25 Dry 32.4F 28F - - - - - 6 mhos 580 None None - -
11/23/2014 16:24 Dry 32.5F 28F - - - - - 6 mhos 572 None None - -
11/23/2014 16:14 Dry 33.3F 28F - - - - - 6 mhos 610 None None - -
11/23/2014 16:10 Dry 33.6F 28F - - - - - 6 mhos 587 None None - -
11/23/2014 16:04 Dry 34.0F 28F - - - - - 6 mhos 590 None None - -
11/23/2014 15:55 Dry 34.5F 28F - - - - - 6 mhos 600 None None - -
11/23/2014 15:54 Dry 34.5F 28F - - - - - 6 mhos 590 None None - -
11/23/2014 15:44 Dry 35.2F 28F - - - - - 6 mhos 592 None None - -
11/23/2014 15:40 Dry 36.1F 28F - - - - - 6 mhos 585 None None - -
11/23/2014 15:34 Dry 36.0F 28F - - - - - 7 mhos 630 None None - -
Date/Time
(MST)
Sf
Temp Chem Water Layer Surface Precipitation
Sf Sub Frz Factor Pct Depth IcePct Cond Salin Type Intens Accum Rate
11/23/2014 15:25 Dry 36.3F 28F - - - - - 7 mhos 652 None None - -
11/23/2014 15:24 Dry 36.7F 28F - - - - - 7 mhos 638 None None - -
11/23/2014 15:14 Dry 38.3F 28F - - - - - 7 mhos 635 None None - -
11/23/2014 15:10 Dry 38.7F 28F - - - - - 7 mhos 619 None None - -
11/23/2014 15:04 Dry 39.0F 28F - - - - - 7 mhos 612 None None - -
11/23/2014 14:55 Dry 39.4F 28F - - - - - 7 mhos 618 None None - -
11/23/2014 14:54 Dry 39.2F 28F - - - - - 7 mhos 636 None None - -
11/23/2014 14:44 Dry 38.8F 27F - - - - - 7 mhos 631 None None - -
11/23/2014 14:34 Dry 37.9F 28F - - - - - 6 mhos 573 None None - -
11/23/2014 14:25 Dry 37.6F 28F - - - - - 6 mhos 609 None None - -
11/23/2014 14:24 Dry 37.2F 28F - - - - - 7 mhos 619 None None - -
11/23/2014 14:13 Dry 39.4F 27F - - - - - 6 mhos 597 None None - -
11/23/2014 14:03 Dry 39.0F 27F - - - - - 6 mhos 595 None None - -
11/23/2014 13:55 Dry 38.8F 27F - - - - - 6 mhos 564 None None - -
11/23/2014 13:53 Dry 38.3F 27F - - - - - 6 mhos 549 None None - -
Date/Time
(MST)
Sf
Temp Chem Water Layer Surface Precipitation
Sf Sub Frz Factor Pct Depth IcePct Cond Salin Type Intens Accum Rate
11/23/2014 13:43 Dry 39.7F 27F - - - - - 6 mhos 571 None None - -
11/23/2014 13:33 Dry 39.7F 27F - - - - - 7 mhos 605 None None - -
11/23/2014 13:25 Dry 40.1F 27F - - - - - 5 mhos 496 None None - -
11/23/2014 13:23 Dry 40.1F 27F - - - - - 6 mhos 552 None None - -
11/23/2014 13:13 Dry 40.1F 27F - - - - - 6 mhos 512 None None - -
11/23/2014 13:03 Dry 39.4F 27F - - - - - 5 mhos 497 None None - -
11/23/2014 12:55 Dry 39.2F 27F - - - - - 5 mhos 502 None None - -
11/23/2014 12:53 Dry 39.2F 27F - - - - - 5 mhos 495 None None - -
11/23/2014 12:43 Dry 39.0F 27F - - - - - 5 mhos 438 None None - -
11/23/2014 12:40 Dry 38.8F 27F - - - - - 4 mhos 407 None None - -
11/23/2014 12:33 Dry 38.5F 27F - - - - - 4 mhos 398 None None - -
11/23/2014 12:25 Dry 38.1F 27F - - - - - 4 mhos 367 None None - -
11/23/2014 12:23 Dry 37.9F 27F - - - - - 4 mhos 355 None None - -
11/23/2014 12:13 Dry 37.8F 27F - - - - - 4 mhos 348 None None - -
11/23/2014 12:10 Dry 37.6F 27F - - - - - 4 mhos 334 None None - -
Date/Time
(MST)
Sf
Temp Chem Water Layer Surface Precipitation
Sf Sub Frz Factor Pct Depth IcePct Cond Salin Type Intens Accum Rate
11/23/2014 12:03 Dry 37.2F 27F - - - - - 4 mhos 339 None None - -
11/23/2014 11:55 Dry 36.7F 27F - - - - - 7 mhos 645 None None - -
11/23/2014 11:53 Dry 37.2F 27F - - - - - 8 mhos 808 None None - -
11/23/2014 11:43 Dry 36.1F 27F - - - - - 10 mhos 1019 None None - -
11/23/2014 11:40 Dry 36.3F 27F - - - - - 7 mhos 673 None None - -
11/23/2014 11:33 Dry 35.8F 27F - - - - - 7 mhos 716 None None - -
11/23/2014 11:25 Dry 34.7F 27F - - - - - 11 mhos 1101 None None - -
11/23/2014 11:23 Dry 34.3F 27F - - - - - 10 mhos 1049 None None - -
11/23/2014 11:13 Dry 33.4F 27F - - - - - 5 mhos 521 None None - -
11/23/2014 11:03 Dry 32.9F 27F - - - - - 1 mhos 79 None None - -
11/23/2014 10:55 Dry 32.2F 27F - - - - - 17 mhos 1775 None None - -
11/23/2014 10:53 Dry 32.0F 27F - - - - - 17 mhos 1839 None None - -
11/23/2014 10:43 Dry 30.9F 27F - - - - - 23 mhos 2598 None None - -
11/23/2014 10:40 Dry 30.9F 27F - - - - - 28 mhos 3231 None None - -
11/23/2014 10:33 Dry 31.3F 27F - - - - - 32 mhos 3619 None None - -
Date/Time
(MST)
Sf
Temp Chem Water Layer Surface Precipitation
Sf Sub Frz Factor Pct Depth IcePct Cond Salin Type Intens Accum Rate
11/23/2014 10:25 Dry 29.7F 27F - - - - - 23 mhos 2614 None None - -
11/23/2014 10:23 Dry 29.1F 27F - - - - - 22 mhos 2589 None None - -
11/23/2014 10:12 Chemically Wet 26.8F 27F 29F 55 9% - 70% 20 mhos 2764 None None - -
11/23/2014 10:02 Chemically Wet 25.3F 27F 29F 40 10% - 73% 19 mhos 2977 None None - -
11/23/2014 09:55 Chemically Wet 24.3F 27F 29F 30 10% - 75% 18 mhos 3101 None None - -
11/23/2014 09:52 Chemically Wet 24.3F 28F 29F 30 10% - 75% 18 mhos 3078 None None - -
11/23/2014 09:42 Chemically Wet 23.2F 28F 29F 10 11% - 77% 17 mhos 3179 None None - -
11/23/2014 09:32 Chemically Wet 22.1F 28F 29F 5 11% - 78% 16 mhos 3227 None None - -
11/23/2014 09:25 Chemically Wet 21.2F 28F 29F 5 11% - 79% 15 mhos 3314 None None - -
11/23/2014 09:22 Chemically Wet 20.7F 28F 29F 5 11% - 80% 15 mhos 3349 None None - -
11/23/2014 09:12 Chemically Wet 19.0F 28F 28F 5 12% - 80% 14 mhos 3573 None None - -
11/23/2014 09:10 Chemically Wet 19.0F 28F 28F 5 12% - 80% 14 mhos 3551 None None - -
11/23/2014 09:02 Chemically Wet 18.0F 28F 28F 5 12% - 80% 13 mhos 3698 None None - -
11/23/2014 08:55 Chemically Wet 17.8F 28F 28F 10 12% - 81% 13 mhos 3677 None None - -
11/23/2014 08:52 Chemically Wet 17.8F 28F 28F 15 12% - 81% 13 mhos 3653 None None - -
Date/Time
(MST)
Sf
Temp Chem Water Layer Surface Precipitation
Sf Sub Frz Factor Pct Depth IcePct Cond Salin Type Intens Accum Rate
11/23/2014 08:42 Chemically Wet 17.1F 28F 28F 20 12% - 81% 12 mhos 3699 None None - -
11/23/2014 08:40 Chemically Wet 16.9F 28F 28F 25 12% - 81% 12 mhos 3712 None None - -
11/23/2014 08:32 Chemically Wet 16.2F 28F 28F 25 12% - 82% 12 mhos 3741 None None - -
11/23/2014 08:25 Chemically Wet 15.8F 28F 28F 25 13% - 82% 11 mhos 3780 None None - -
11/23/2014 08:22 Chemically Wet 15.6F 28F 28F 30 13% - 82% 11 mhos 3770 None None - -
11/23/2014 08:12 Chemically Wet 14.9F 28F 28F 25 13% - 82% 11 mhos 3828 None None - -
11/23/2014 08:02 Chemically Wet 14.4F 28F 28F 25 13% - 82% 10 mhos 3867 None None - -
11/23/2014 07:55 Chemically Wet 14.2F 28F 28F 25 13% - 83% 10 mhos 3873 None None - -
11/23/2014 07:52 Chemically Wet 14.2F 28F 28F 25 13% - 82% 10 mhos 3897 None None - -
11/23/2014 07:42 Chemically Wet 14.2F 28F 28F 25 13% - 83% 10 mhos 3845 None None - -
11/23/2014 07:32 Chemically Wet 14.0F 28F 28F 25 13% - 83% 10 mhos 3857 None None - -
11/23/2014 07:25 Chemically Wet 14.0F 28F 28F 25 13% - 83% 10 mhos 3851 None None - -
11/23/2014 07:22 Chemically Wet 14.0F 28F 28F 25 13% - 83% 10 mhos 3835 None None - -
11/23/2014 07:12 Chemically Wet 13.8F 28F 28F 25 13% - 83% 10 mhos 3854 None None - -
11/23/2014 07:02 Chemically Wet 13.8F 28F 28F 20 13% - 83% 10 mhos 3827 None None - -
Date/Time
(MST)
Sf
Temp Chem Water Layer Surface Precipitation
Sf Sub Frz Factor Pct Depth IcePct Cond Salin Type Intens Accum Rate
11/23/2014 06:56 Chemically Wet 13.6F 28F 28F 25 13% - 83% 10 mhos 3830 None None - -
11/23/2014 06:52 Chemically Wet 13.5F 28F 28F 25 13% - 83% 10 mhos 3860 None None - -
11/23/2014 06:41 Chemically Wet 13.3F 28F 28F 25 13% - 83% 9 mhos 3858 None None - -
11/23/2014 06:31 Chemically Wet 13.1F 28F 28F 25 13% - 83% 9 mhos 3876 None None - -
11/23/2014 06:25 Chemically Wet 13.1F 28F 28F 25 13% - 83% 9 mhos 3852 None None - -
11/23/2014 06:21 Chemically Wet 13.3F 28F 28F 25 13% - 83% 9 mhos 3817 None None - -
11/23/2014 06:11 Chemically Wet 12.9F 28F 28F 25 13% - 83% 9 mhos 3850 None None - -
11/23/2014 06:01 Chemically Wet 12.2F 28F 28F 25 13% - 84% 9 mhos 3893 None None - -
11/23/2014 05:55 Chemically Wet 11.3F 28F 28F 20 13% - 84% 8 mhos 3943 None None - -
11/23/2014 05:51 Chemically Wet 11.1F 28F 28F 20 13% - 84% 8 mhos 3955 None None - -
11/23/2014 05:41 Chemically Wet 11.5F 28F 28F 20 13% - 84% 8 mhos 3906 None None - -
11/23/2014 05:31 Chemically Wet 11.7F 28F 28F 20 13% - 84% 8 mhos 3879 None None - -
11/23/2014 05:25 Chemically Wet 11.3F 28F 28F 20 13% - 84% 8 mhos 3906 None None - -
11/23/2014 05:21 Chemically Wet 11.5F 28F 28F 20 13% - 84% 8 mhos 3888 None None - -
11/23/2014 05:11 Chemically Wet 11.7F 28F 28F 20 13% - 84% 8 mhos 3891 None None - -
Date/Time
(MST)
Sf
Temp Chem Water Layer Surface Precipitation
Sf Sub Frz Factor Pct Depth IcePct Cond Salin Type Intens Accum Rate
11/23/2014 05:01 Chemically Wet 11.8F 28F 28F 25 13% - 84% 8 mhos 3899 None None - -
11/23/2014 04:56 Chemically Wet 12.0F 28F 28F 25 13% - 84% 9 mhos 3901 None None - -
11/23/2014 04:51 Chemically Wet 12.2F 28F 28F 25 13% - 84% 9 mhos 3864 None None - -
11/23/2014 04:41 Chemically Wet 12.6F 28F 28F 25 13% - 84% 9 mhos 3871 None None - -
11/23/2014 04:31 Chemically Wet 13.1F 29F 28F 25 13% - 83% 9 mhos 3867 None None - -
11/23/2014 04:25 Chemically Wet 13.6F 29F 28F 25 13% - 83% 9 mhos 3804 None None - -
11/23/2014 04:21 Chemically Wet 14.0F 29F 28F 25 13% - 83% 10 mhos 3787 None None - -
11/23/2014 04:11 Chemically Wet 14.5F 29F 28F 25 12% - 83% 10 mhos 3747 None None - -
11/23/2014 04:01 Chemically Wet 14.9F 29F 28F 30 13% - 83% 10 mhos 3758 None None - -
11/23/2014 03:55 Chemically Wet 15.1F 29F 28F 30 12% - 83% 10 mhos 3747 None None - -
11/23/2014 03:51 Chemically Wet 15.1F 29F 28F 30 12% - 83% 11 mhos 3724 None None - -
11/23/2014 03:41 Chemically Wet 15.4F 29F 28F 30 12% - 82% 11 mhos 3732 None None - -
11/23/2014 03:31 Chemically Wet 16.7F 29F 28F 35 12% - 82% 11 mhos 3606 None None - -
11/23/2014 03:25 Chemically Wet 17.1F 29F 28F 40 12% - 82% 12 mhos 3539 None None - -
11/23/2014 03:21 Chemically Wet 17.1F 29F 28F 40 12% - 82% 12 mhos 3521 None None - -
Date/Time
(MST)
Sf
Temp Chem Water Layer Surface Precipitation
Sf Sub Frz Factor Pct Depth IcePct Cond Salin Type Intens Accum Rate
11/23/2014 03:10 Chemically Wet 17.2F 29F 28F 40 12% - 82% 12 mhos 3477 Yes - - -
11/23/2014 03:00 Chemically Wet 16.9F 29F 28F 40 12% - 82% 11 mhos 3496 None None - -
11/23/2014 02:56 Chemically Wet 16.2F 29F 28F 35 12% - 83% 11 mhos 3572 None None - -
11/23/2014 02:50 Chemically Wet 16.2F 29F 28F 35 12% - 83% 11 mhos 3599 None None - -
11/23/2014 02:40 Chemically Wet 16.7F 29F 28F 35 12% - 82% 11 mhos 3557 None None - -
11/23/2014 02:30 Chemically Wet 17.2F 29F 28F 40 12% - 82% 12 mhos 3507 None None - -
11/23/2014 02:25 Chemically Wet 17.4F 29F 28F 40 12% - 82% 12 mhos 3493 None None - -
11/23/2014 02:20 Chemically Wet 17.8F 29F 28F 40 12% - 82% 12 mhos 3461 None None - -
11/23/2014 02:10 Chemically Wet 18.1F 29F 29F 45 11% - 82% 12 mhos 3406 None None - -
11/23/2014 02:00 Chemically Wet 18.1F 29F 29F 45 11% - 82% 12 mhos 3374 None None - -
11/23/2014 01:55 Chemically Wet 18.1F 29F 29F 45 11% - 82% 12 mhos 3368 None None - -
11/23/2014 01:50 Chemically Wet 18.1F 29F 29F 45 11% - 82% 12 mhos 3382 None None - -
11/23/2014 01:40 Chemically Wet 18.1F 29F 29F 45 11% - 82% 12 mhos 3308 None None - -
11/23/2014 01:30 Chemically Wet 17.6F 29F 29F 40 11% - 83% 11 mhos 3339 None None - -
11/23/2014 01:25 Chemically Wet 17.4F 29F 29F 35 11% - 83% 11 mhos 3291 None None - -
Date/Time
(MST)
Sf
Temp Chem Water Layer Surface Precipitation
Sf Sub Frz Factor Pct Depth IcePct Cond Salin Type Intens Accum Rate
11/23/2014 01:20 Chemically Wet 16.9F 29F 29F 25 10% - 85% 9 mhos 2994 Yes - - -
11/23/2014 01:10 Ice Warning 15.8F 29F 30F 5 7% - 90% 6 mhos 2082 None None - -
11/23/2014 01:00 Ice Warning 14.7F 29F 30F 5 7% - 90% 5 mhos 2094 Yes - - -
11/23/2014 00:55 Ice Warning 15.1F 29F 30F 5 7% - 91% 5 mhos 2030 None None - -
11/23/2014 00:50 Ice Warning 14.9F 29F 30F 5 7% - 91% 5 mhos 2011 None None - -
11/23/2014 00:40 Ice Warning 15.1F 29F 30F 5 6% - 91% 5 mhos 1928 None None - -
11/23/2014 00:30 Ice Warning 15.1F 29F 30F 5 7% - 91% 5 mhos 1958 None None - -
11/23/2014 00:25 Ice Warning 15.1F 29F 30F 5 6% - 91% 5 mhos 1940 None None - -
11/23/2014 00:20 Ice Warning 15.3F 29F 30F 5 6% - 91% 5 mhos 1908 None None - -
11/23/2014 00:10 Ice Warning 16.2F 29F 30F 5 6% - 91% 5 mhos 1762 None None - -
11/23/2014 00:09 Ice Warning 16.2F 29F 30F 5 6% - 91% 5 mhos 1762 None None - -
11/22/2014 23:59 Ice Warning 16.2F 29F 31F 5 5% - 92% 4 mhos 1597 None None - -
11/22/2014 23:49 Ice Warning 15.3F 29F 31F 5 6% - 92% 4 mhos 1678 None None - -
11/22/2014 23:40 Ice Warning 14.9F 29F 30F 5 6% - 92% 4 mhos 1723 None None - -
11/22/2014 23:39 Ice Warning 14.9F 29F 30F 5 6% - 92% 4 mhos 1725 None None - -
Date/Time
(MST)
Sf
Temp Chem Water Layer Surface Precipitation
Sf Sub Frz Factor Pct Depth IcePct Cond Salin Type Intens Accum Rate
11/22/2014 23:29 Ice Warning 15.1F 29F 31F 5 6% - 92% 4 mhos 1700 None None - -
11/22/2014 23:25 Ice Warning 15.1F 29F 31F 5 6% - 92% 4 mhos 1670 None None - -
11/22/2014 23:19 Ice Warning 15.4F 29F 31F 5 5% - 93% 4 mhos 1584 None None - -
11/22/2014 23:09 Ice Warning 15.4F 29F 31F 5 5% - 93% 4 mhos 1560 None None - -
11/22/2014 22:59 Ice Warning 15.3F 30F 31F 5 5% - 92% 4 mhos 1617 None None - -
11/22/2014 22:55 Ice Warning 15.3F 30F 31F 5 6% - 92% 4 mhos 1694 None None - -
11/22/2014 22:49 Ice Warning 15.3F 30F 31F 5 6% - 92% 4 mhos 1692 None None - -
11/22/2014 22:39 Ice Warning 15.1F 30F 31F 5 6% - 92% 4 mhos 1703 None None - -
11/22/2014 22:29 Ice Warning 15.1F 30F 31F 5 5% - 92% 4 mhos 1647 None None - -
11/22/2014 22:26 Ice Warning 15.1F 30F 31F 5 5% - 92% 4 mhos 1639 None None - -
11/22/2014 22:19 Ice Warning 15.1F 30F 31F 5 5% - 93% 4 mhos 1604 None None - -
11/22/2014 22:09 Ice Warning 15.1F 30F 31F 10 5% - 93% 4 mhos 1549 None None - -
11/22/2014 21:59 Ice Warning 15.4F 30F 31F 5 5% - 93% 4 mhos 1583 None None - -
11/22/2014 21:55 Ice Warning 15.4F 30F 31F 5 5% - 92% 4 mhos 1613 None None - -
11/22/2014 21:49 Ice Warning 15.6F 30F 31F 10 5% - 92% 4 mhos 1598 None None - -
Date/Time
(MST)
Sf
Temp Chem Water Layer Surface Precipitation
Sf Sub Frz Factor Pct Depth IcePct Cond Salin Type Intens Accum Rate
11/22/2014 21:39 Ice Warning 16.2F 30F 31F 15 5% - 93% 4 mhos 1513 None None - -
11/22/2014 21:29 Ice Warning 16.5F 30F 31F 10 6% - 92% 5 mhos 1667 None None - -
11/22/2014 21:25 Ice Warning 16.7F 30F 31F 15 6% - 92% 5 mhos 1682 None None - -
11/22/2014 21:19 Ice Warning 16.7F 30F 30F 5 6% - 92% 5 mhos 1706 None None - -
11/22/2014 21:09 Ice Warning 16.3F 30F 30F 5 6% - 91% 5 mhos 1813 None None - -
11/22/2014 20:59 Ice Warning 16.3F 30F 30F 5 6% - 91% 5 mhos 1867 None None - -
11/22/2014 20:55 Ice Warning 16.5F 30F 30F 5 6% - 91% 5 mhos 1827 None None - -
11/22/2014 20:49 Ice Warning 16.5F 30F 30F 20 6% - 91% 5 mhos 1825 None None - -
11/22/2014 20:38 Ice Warning 16.9F 30F 30F 30 6% - 91% 6 mhos 1859 None None - -
11/22/2014 20:28 Ice Warning 17.1F 30F 30F 25 6% - 90% 6 mhos 1909 None None - -
11/22/2014 20:25 Ice Warning 17.2F 30F 30F 20 6% - 90% 6 mhos 1886 None None - -
11/22/2014 20:18 Ice Warning 17.6F 30F 30F 5 7% - 90% 6 mhos 1977 None None - -
11/22/2014 20:08 Ice Warning 17.6F 30F 30F 10 6% - 90% 6 mhos 1896 None None - -
11/22/2014 19:58 Ice Warning 18.0F 30F 30F 25 6% - 90% 6 mhos 1915 None None - -
11/22/2014 19:55 Ice Warning 18.1F 30F 30F 30 6% - 90% 6 mhos 1900 None None - -
Date/Time
(MST)
Sf
Temp Chem Water Layer Surface Precipitation
Sf Sub Frz Factor Pct Depth IcePct Cond Salin Type Intens Accum Rate
11/22/2014 19:48 Ice Warning 18.3F 30F 30F 25 6% - 90% 6 mhos 1898 None None - -
11/22/2014 19:38 Ice Warning 18.7F 30F 30F 35 6% - 90% 6 mhos 1857 None None - -
11/22/2014 19:28 Ice Warning 19.2F 30F 30F 25 6% - 89% 7 mhos 1924 None None - -
11/22/2014 19:25 Ice Warning 19.2F 30F 30F 40 6% - 89% 7 mhos 1947 None None - -
11/22/2014 19:18 Ice Warning 19.6F 30F 30F 30 7% - 88% 8 mhos 2023 None None - -
11/22/2014 19:10 Ice Warning 19.6F 30F 30F 40 7% - 88% 8 mhos 2159 None None - -
11/22/2014 19:08 Ice Warning 19.9F 30F 30F 45 7% - 88% 8 mhos 2116 None None - -
11/22/2014 18:58 Ice Warning 20.3F 30F 30F 35 8% - 86% 9 mhos 2300 None None - -
11/22/2014 18:55 Ice Warning 20.7F 30F 30F 25 8% - 86% 10 mhos 2309 None None - -
11/22/2014 18:48 Ice Warning 21.0F 30F 30F 25 8% - 86% 10 mhos 2273 None None - -
11/22/2014 18:40 Ice Warning 21.2F 30F 30F 15 7% - 86% 10 mhos 2233 None None - -
11/22/2014 18:38 Ice Warning 21.2F 30F 30F 20 7% - 86% 10 mhos 2233 None None - -
11/22/2014 18:28 Ice Warning 21.4F 30F 30F 25 7% - 86% 10 mhos 2167 None None - -
11/22/2014 18:25 Ice Warning 21.6F 30F 30F 20 6% - 88% 8 mhos 1905 None None - -
11/22/2014 18:18 Ice Warning 21.6F 30F 30F 10 7% - 86% 10 mhos 2182 None None - -
Date/Time
(MST)
Sf
Temp Chem Water Layer Surface Precipitation
Sf Sub Frz Factor Pct Depth IcePct Cond Salin Type Intens Accum Rate
11/22/2014 18:08 Ice Warning 22.1F 30F 31F 55 4% - 93% 5 mhos 1087 None None - -
11/22/2014 17:58 Ice Warning 22.6F 30F 31F 45 4% - 92% 6 mhos 1199 None None - -
11/22/2014 17:55 Ice Warning 22.6F 30F 31F 45 4% - 92% 6 mhos 1200 None None - -
11/22/2014 17:48 Ice Warning 23.2F 30F 31F 55 4% - 90% 6 mhos 1311 None None - -
11/22/2014 17:38 Ice Warning 23.7F 30F 31F 40 4% - 91% 6 mhos 1192 None None - -
11/22/2014 17:28 Ice Warning 24.1F 30F 31F 45 4% - 91% 6 mhos 1132 None None - -
11/22/2014 17:25 Ice Warning 24.3F 30F 31F 45 4% - 91% 6 mhos 1149 None None - -
11/22/2014 17:17 Ice Warning 24.6F 30F 31F 60 4% - 91% 6 mhos 1054 None None - -
11/22/2014 17:10 Ice Warning 25.2F 29F 31F 60 3% - 91% 6 mhos 1021 None None - -
11/22/2014 17:07 Ice Warning 25.2F 29F 31F 60 4% - 91% 6 mhos 1058 None None - -
Change End Date:
Copyright © 1998-2005 Surface Systems, Inc.
All Rights Reserved
Send comments about the data to:
SCAN Web ® is a registered trademark of Surface Systems, Inc.
SCAN Web Version 5.6